createdAt,value
2023-02-01T00:04:56.134Z,91.34
2023-02-01T00:09:57.522Z,91.26
2023-02-01T00:14:59.583Z,90.71
2023-02-01T00:20:00.930Z,90.30
2023-02-01T00:25:02.262Z,90.61
2023-02-01T00:30:04.144Z,90.41
2023-02-01T00:35:06.041Z,89.64
2023-02-01T00:40:08.339Z,90.02
2023-02-01T00:45:10.444Z,89.39
2023-02-01T00:50:12.023Z,89.88
2023-02-01T00:55:13.438Z,89.82
2023-02-01T01:00:15.463Z,90.20
2023-02-01T01:05:17.107Z,89.80
2023-02-01T01:10:18.601Z,89.80
2023-02-01T01:15:20.072Z,90.00
2023-02-01T01:20:22.837Z,90.01
2023-02-01T01:25:24.351Z,89.35
2023-02-01T01:30:25.740Z,88.82
2023-02-01T01:35:27.216Z,88.79
2023-02-01T01:40:30.064Z,88.95
2023-02-01T01:45:34.069Z,89.64
2023-02-01T01:50:49.166Z,90.07
2023-02-01T01:55:53.133Z,90.54
2023-02-01T02:00:55.151Z,90.71
2023-02-01T02:05:59.824Z,91.13
2023-02-01T02:11:01.642Z,91.14
2023-02-01T02:16:35.341Z,92.21
2023-02-01T02:21:55.552Z,92.60
2023-02-01T02:27:34.569Z,92.38
2023-02-01T02:33:07.720Z,93.09
2023-02-01T02:38:38.450Z,93.09
2023-02-01T02:44:12.622Z,93.83
2023-02-01T02:49:30.069Z,94.10
2023-02-01T02:54:48.237Z,94.54
2023-02-01T03:00:08.584Z,94.90
2023-02-01T03:05:10.149Z,94.79
2023-02-01T03:10:21.329Z,94.75
2023-02-01T03:15:30.738Z,95.13
2023-02-01T03:20:33.449Z,95.17
2023-02-01T03:25:35.571Z,95.43
2023-02-01T03:30:40.204Z,95.10
2023-02-01T03:35:50.817Z,95.08
2023-02-01T03:40:58.743Z,94.25
2023-02-01T03:46:06.323Z,94.06
2023-02-01T03:51:10.430Z,94.29
2023-02-01T03:56:12.563Z,94.07
2023-02-01T04:01:13.993Z,94.15
2023-02-01T04:06:15.302Z,93.83
2023-02-01T04:11:16.922Z,93.99
2023-02-01T04:16:18.432Z,94.35
2023-02-01T04:21:19.868Z,94.43
2023-02-01T04:26:22.556Z,94.37
2023-02-01T04:31:26.698Z,94.89
2023-02-01T04:36:28.180Z,94.38
2023-02-01T04:41:29.967Z,94.12
2023-02-01T04:46:31.501Z,93.06
2023-02-01T04:51:33.399Z,92.95
2023-02-01T04:56:38.301Z,93.27
2023-02-01T05:01:39.751Z,93.09
2023-02-01T05:06:41.140Z,93.59
2023-02-01T05:12:01.291Z,93.50
2023-02-01T05:17:02.704Z,93.29
2023-02-01T05:22:04.041Z,93.03
2023-02-01T05:27:05.512Z,93.55
2023-02-01T05:32:21.039Z,93.50
2023-02-01T05:37:23.621Z,92.68
2023-02-01T05:42:24.995Z,92.18
2023-02-01T05:47:26.638Z,91.49
2023-02-01T05:52:27.959Z,90.92
2023-02-01T05:57:30.111Z,90.84
2023-02-01T06:02:31.940Z,90.17
2023-02-01T06:07:33.487Z,90.26
2023-02-01T06:12:34.827Z,90.02
2023-02-01T06:17:36.631Z,89.38
2023-02-01T06:22:38.223Z,88.01
2023-02-01T06:27:39.645Z,86.71
2023-02-01T06:32:41.387Z,86.61
2023-02-01T06:37:43.012Z,86.58
2023-02-01T06:42:44.372Z,87.06
2023-02-01T06:47:45.833Z,87.86
2023-02-01T06:52:47.128Z,87.31
2023-02-01T06:57:48.437Z,87.74
2023-02-01T07:02:51.779Z,86.35
2023-02-01T07:07:53.128Z,85.73
2023-02-01T07:12:58.354Z,85.12
2023-02-01T07:17:59.795Z,84.51
2023-02-01T07:23:01.173Z,82.55
2023-02-01T07:28:02.490Z,81.81
2023-02-01T07:33:03.992Z,84.90
2023-02-01T07:38:05.287Z,78.92
2023-02-01T07:43:08.824Z,78.21
2023-02-01T07:48:10.265Z,77.88
2023-02-01T07:53:11.739Z,75.99
2023-02-01T07:58:13.042Z,75.55
2023-02-01T08:03:15.974Z,74.67
2023-02-01T08:08:18.619Z,74.51
2023-02-01T08:13:19.953Z,73.90
2023-02-01T08:18:21.843Z,73.19
2023-02-01T08:23:24.245Z,73.40
2023-02-01T08:28:25.682Z,73.19
2023-02-01T08:33:26.977Z,73.77
2023-02-01T08:38:28.597Z,73.18
2023-02-01T08:43:29.918Z,72.96
2023-02-01T08:48:32.135Z,72.95
2023-02-01T08:53:33.815Z,72.84
2023-02-01T08:58:35.475Z,72.64
2023-02-01T09:03:37.095Z,71.96
2023-02-01T09:08:40.084Z,71.41
2023-02-01T09:13:43.901Z,71.38
2023-02-01T09:18:56.070Z,71.05
2023-02-01T09:24:07.751Z,70.46
2023-02-01T09:29:12.081Z,70.01
2023-02-01T09:34:13.474Z,69.83
2023-02-01T09:39:14.881Z,69.58
2023-02-01T09:44:35.565Z,68.21
2023-02-01T09:49:51.630Z,68.37
2023-02-01T09:55:01.732Z,68.09
2023-02-01T10:00:16.291Z,67.67
2023-02-01T10:05:30.050Z,67.35
2023-02-01T10:10:40.794Z,66.88
2023-02-01T10:16:17.432Z,67.31
2023-02-01T10:21:44.722Z,65.85
2023-02-01T10:26:55.948Z,65.58
2023-02-01T10:31:58.506Z,65.47
2023-02-01T10:37:19.885Z,64.81
2023-02-01T10:42:25.348Z,64.67
2023-02-01T10:47:26.781Z,65.42
2023-02-01T10:52:35.713Z,64.70
2023-02-01T10:57:37.352Z,64.86
2023-02-01T11:02:38.700Z,65.15
2023-02-01T11:07:46.992Z,65.26
2023-02-01T11:12:54.875Z,65.67
2023-02-01T11:17:57.464Z,65.35
2023-02-01T11:22:59.297Z,65.41
2023-02-01T11:28:00.687Z,65.24
2023-02-01T11:33:06.298Z,65.48
2023-02-01T11:38:23.638Z,65.76
2023-02-01T11:43:28.230Z,66.03
2023-02-01T11:48:34.351Z,66.25
2023-02-01T11:53:47.375Z,65.99
2023-02-01T11:59:26.373Z,66.36
2023-02-01T12:04:58.455Z,65.59
2023-02-01T12:10:19.558Z,66.08
2023-02-01T12:15:48.204Z,66.08
2023-02-01T12:21:11.558Z,65.85
2023-02-01T12:26:12.835Z,65.25
2023-02-01T12:31:42.092Z,65.21
2023-02-01T12:36:46.553Z,65.60
2023-02-01T12:42:14.578Z,66.07
2023-02-01T12:47:30.472Z,66.32
2023-02-01T12:52:36.337Z,66.85
2023-02-01T12:57:46.516Z,66.75
2023-02-01T13:03:00.223Z,66.36
2023-02-01T13:08:13.195Z,66.52
2023-02-01T13:13:17.554Z,66.43
2023-02-01T13:18:22.307Z,66.06
2023-02-01T13:23:31.633Z,66.16
2023-02-01T13:28:50.492Z,66.45
2023-02-01T13:34:40.353Z,65.48
2023-02-01T13:40:09.423Z,65.39
2023-02-01T13:45:17.193Z,64.71
2023-02-01T13:50:18.481Z,64.96
2023-02-01T13:55:23.183Z,64.52
2023-02-01T14:00:38.814Z,64.72
2023-02-01T14:05:40.396Z,65.29
2023-02-01T14:10:53.906Z,64.62
2023-02-01T14:16:04.480Z,64.49
2023-02-01T14:21:31.538Z,63.63
2023-02-01T14:26:35.751Z,64.10
2023-02-01T14:31:55.868Z,62.76
2023-02-01T14:37:02.565Z,61.14
2023-02-01T14:42:16.261Z,60.69
2023-02-01T14:47:30.098Z,59.03
2023-02-01T14:52:44.800Z,58.58
2023-02-01T14:57:50.445Z,57.27
2023-02-01T15:02:53.877Z,58.18
2023-02-01T15:07:55.302Z,56.11
2023-02-01T15:12:56.651Z,57.08
2023-02-01T15:18:01.185Z,57.97
2023-02-01T15:23:05.401Z,59.04
2023-02-01T15:28:14.218Z,59.60
2023-02-01T15:33:17.210Z,59.95
2023-02-01T15:38:32.307Z,60.40
2023-02-01T15:43:44.083Z,60.87
2023-02-01T15:48:50.027Z,61.28
2023-02-01T15:54:07.334Z,61.14
2023-02-01T15:59:18.443Z,61.25
2023-02-01T16:04:30.641Z,62.02
2023-02-01T16:09:39.748Z,62.47
2023-02-01T16:14:41.456Z,63.19
2023-02-01T16:19:42.923Z,63.62
2023-02-01T16:24:44.346Z,63.79
2023-02-01T16:29:45.808Z,64.16
2023-02-01T16:34:47.856Z,64.06
2023-02-01T16:39:49.365Z,64.55
2023-02-01T16:44:51.099Z,64.26
2023-02-01T16:49:52.664Z,64.39
2023-02-01T16:54:54.185Z,64.46
2023-02-01T16:59:55.528Z,64.26
2023-02-01T17:04:56.957Z,64.63
2023-02-01T17:09:58.355Z,64.46
2023-02-01T17:15:01.231Z,65.28
2023-02-01T17:20:04.181Z,65.31
2023-02-01T17:25:14.480Z,66.13
2023-02-01T17:30:16.219Z,66.48
2023-02-01T17:35:24.599Z,66.93
2023-02-01T17:40:28.154Z,67.52
2023-02-01T17:45:36.974Z,68.49
2023-02-01T17:50:38.992Z,68.76
2023-02-01T17:55:44.280Z,69.57
2023-02-01T18:00:47.913Z,70.59
2023-02-01T18:05:53.693Z,71.96
2023-02-01T18:11:00.817Z,72.97
2023-02-01T18:16:03.659Z,74.88
2023-02-01T18:21:05.637Z,74.46
2023-02-01T18:26:11.372Z,74.99
2023-02-01T18:31:34.102Z,76.51
2023-02-01T18:36:35.495Z,77.84
2023-02-01T18:41:36.996Z,77.89
2023-02-01T18:46:38.374Z,78.54
2023-02-01T18:51:39.856Z,77.97
2023-02-01T18:56:42.860Z,78.07
2023-02-01T19:01:44.891Z,78.12
2023-02-01T19:06:46.631Z,78.61
2023-02-01T19:11:47.973Z,79.36
2023-02-01T19:16:50.147Z,78.97
2023-02-01T19:21:52.424Z,79.95
2023-02-01T19:26:54.021Z,80.20
2023-02-01T19:31:55.466Z,80.01
2023-02-01T19:36:56.846Z,79.73
2023-02-01T19:41:59.180Z,79.39
2023-02-01T19:47:00.830Z,78.94
2023-02-01T19:52:02.925Z,79.41
2023-02-01T19:57:04.346Z,78.95
2023-02-01T20:02:05.016Z,78.92
2023-02-01T20:07:06.362Z,78.11
2023-02-01T20:12:11.420Z,78.06
2023-02-01T20:17:15.152Z,77.22
2023-02-01T20:22:16.889Z,76.58
2023-02-01T20:27:19.191Z,76.53
2023-02-01T20:32:20.708Z,76.12
2023-02-01T20:37:22.164Z,76.03
2023-02-01T20:42:23.580Z,75.46
2023-02-01T20:47:24.945Z,75.17
2023-02-01T20:52:26.287Z,74.91
2023-02-01T20:57:27.650Z,75.21
2023-02-01T21:02:29.037Z,74.59
2023-02-01T21:07:30.360Z,73.83
2023-02-01T21:12:31.918Z,74.40
2023-02-01T21:17:33.704Z,73.82
2023-02-01T21:22:35.026Z,73.28
2023-02-01T21:27:36.800Z,73.53
2023-02-01T21:32:38.237Z,73.43
2023-02-01T21:37:39.541Z,73.30
2023-02-01T21:42:42.676Z,73.22
2023-02-01T21:47:44.300Z,73.48
2023-02-01T21:52:46.477Z,73.30
2023-02-01T21:57:47.811Z,72.66
2023-02-01T22:02:49.201Z,73.27
2023-02-01T22:07:50.651Z,73.17
2023-02-01T22:12:51.940Z,72.64
2023-02-01T22:17:53.877Z,72.79
2023-02-01T22:22:56.437Z,72.59
2023-02-01T22:28:30.486Z,72.80
2023-02-01T22:33:19.586Z,72.67
2023-02-01T22:38:21.004Z,72.96
2023-02-01T22:43:23.076Z,72.34
2023-02-01T22:48:24.483Z,73.22
2023-02-01T22:53:26.768Z,74.55
2023-02-01T22:58:28.571Z,74.38
2023-02-01T23:03:30.075Z,74.87
2023-02-01T23:08:33.933Z,74.63
2023-02-01T23:13:36.956Z,74.46
2023-02-01T23:18:39.089Z,74.79
2023-02-01T23:23:45.028Z,74.60
2023-02-01T23:28:47.076Z,75.00
2023-02-01T23:33:49.384Z,75.43
2023-02-01T23:38:51.403Z,75.64
2023-02-01T23:43:58.888Z,75.83
2023-02-01T23:49:01.585Z,76.33
2023-02-01T23:54:03.748Z,76.21
2023-02-01T23:59:09.780Z,76.65
